<?xml version="1.0" encoding="UTF-8" standalone="no" ?>
<gpx xmlns="http://www.topografix.com/GPX/1/1" xmlns:xsi="http://www.w3.org/2001/XMLSchema-instance" xsi:schemaLocation="http://www.topografix.com/GPX/1/1 http://www.topografix.com/GPX/1/1/gpx.xsd" version="1.1" creator="VisuGPX - https://www.visugpx.com">
  <metadata>
    <name>Rando LN</name>
  </metadata>
  <trk>
    <name><![CDATA[saussignac]]></name>
    <extensions>
      <line xmlns="http://www.topografix.com/GPX/gpx_style/0/2">
        <color>fb00ff</color>
        <width>4</width>
      </line>
    </extensions>
    <trkseg>
      <trkpt lat="44.8407" lon="0.21187">
        <ele>18.922</ele>
        <time>2019-04-11T18:20:21Z</time>
      </trkpt>
      <trkpt lat="44.8407" lon="0.21187">
        <ele>18.922</ele>
        <time>2019-04-11T18:20:21Z</time>
      </trkpt>
      <trkpt lat="44.8407" lon="0.21187">
        <ele>18.922</ele>
        <time>2019-04-11T18:20:21Z</time>
      </trkpt>
      <trkpt lat="44.8407" lon="0.21187">
        <ele>18.922</ele>
        <time>2019-04-11T18:20:21Z</time>
      </trkpt>
      <trkpt lat="44.8407" lon="0.21187">
        <ele>18.922</ele>
        <time>2019-04-11T18:20:21Z</time>
      </trkpt>
      <trkpt lat="44.8407" lon="0.21187">
        <ele>18.922</ele>
        <time>2019-04-11T18:20:21Z</time>
      </trkpt>
      <trkpt lat="44.8407" lon="0.21187">
        <ele>18.922</ele>
        <time>2019-04-11T18:20:21Z</time>
      </trkpt>
      <trkpt lat="44.8407" lon="0.21187">
        <ele>18.922</ele>
        <time>2019-04-11T18:20:21Z</time>
      </trkpt>
      <trkpt lat="44.8407" lon="0.21187">
        <ele>18.922</ele>
        <time>2019-04-11T18:20:21Z</time>
      </trkpt>
      <trkpt lat="44.8407" lon="0.21187">
        <ele>18.922</ele>
        <time>2019-04-11T18:20:21Z</time>
      </trkpt>
      <trkpt lat="44.84107" lon="0.2125">
        <ele>19.208</ele>
        <time>2019-04-11T18:20:01Z</time>
      </trkpt>
      <trkpt lat="44.84117" lon="0.21335">
        <ele>20.224</ele>
        <time>2019-04-11T18:19:41Z</time>
      </trkpt>
      <trkpt lat="44.8403" lon="0.21415">
        <ele>18.531</ele>
        <time>2019-04-11T18:19:21Z</time>
      </trkpt>
      <trkpt lat="44.8382" lon="0.21513">
        <ele>19.696</ele>
        <time>2019-04-11T18:19:01Z</time>
      </trkpt>
      <trkpt lat="44.83873" lon="0.21806">
        <ele>20.312</ele>
        <time>2019-04-11T18:18:41Z</time>
      </trkpt>
      <trkpt lat="44.83777" lon="0.2182">
        <ele>20.744</ele>
        <time>2019-04-11T18:18:21Z</time>
      </trkpt>
      <trkpt lat="44.83714" lon="0.21882">
        <ele>20.239</ele>
        <time>2019-04-11T18:18:01Z</time>
      </trkpt>
      <trkpt lat="44.83615" lon="0.21891">
        <ele>19.614</ele>
        <time>2019-04-11T18:17:41Z</time>
      </trkpt>
      <trkpt lat="44.83569" lon="0.2186">
        <ele>19.683</ele>
        <time>2019-04-11T18:17:21Z</time>
      </trkpt>
      <trkpt lat="44.83484" lon="0.21994">
        <ele>19.094</ele>
        <time>2019-04-11T18:17:01Z</time>
      </trkpt>
      <trkpt lat="44.8336" lon="0.22102">
        <ele>18.398</ele>
        <time>2019-04-11T18:16:41Z</time>
      </trkpt>
      <trkpt lat="44.83315" lon="0.22158">
        <ele>19.056</ele>
        <time>2019-04-11T18:16:21Z</time>
      </trkpt>
      <trkpt lat="44.83221" lon="0.22339">
        <ele>18.808</ele>
        <time>2019-04-11T18:16:01Z</time>
      </trkpt>
      <trkpt lat="44.83056" lon="0.22592">
        <ele>19.711</ele>
        <time>2019-04-11T18:15:41Z</time>
      </trkpt>
      <trkpt lat="44.82988" lon="0.22689">
        <ele>20.092</ele>
        <time>2019-04-11T18:15:21Z</time>
      </trkpt>
      <trkpt lat="44.82988" lon="0.22689">
        <ele>20.092</ele>
        <time>2019-04-11T18:15:21Z</time>
      </trkpt>
      <trkpt lat="44.82988" lon="0.22689">
        <ele>20.092</ele>
        <time>2019-04-11T18:15:21Z</time>
      </trkpt>
      <trkpt lat="44.82988" lon="0.22689">
        <ele>20.092</ele>
        <time>2019-04-11T18:15:21Z</time>
      </trkpt>
      <trkpt lat="44.82493" lon="0.23562">
        <ele>26.6</ele>
      </trkpt>
      <trkpt lat="44.8244" lon="0.23597">
        <ele>30</ele>
      </trkpt>
      <trkpt lat="44.82429" lon="0.2361">
        <ele>31.669</ele>
        <time>2017-03-29T10:21:52Z</time>
      </trkpt>
      <trkpt lat="44.82413" lon="0.23661">
        <ele>35.004</ele>
        <time>2020-11-25T01:39:40Z</time>
      </trkpt>
      <trkpt lat="44.82348" lon="0.23735">
        <ele>45.424</ele>
        <time>2020-11-25T01:40:00Z</time>
      </trkpt>
      <trkpt lat="44.82347" lon="0.23748">
        <ele>47.208</ele>
        <time>2020-11-25T01:40:20Z</time>
      </trkpt>
      <trkpt lat="44.82306" lon="0.23782">
        <ele>53.172</ele>
        <time>2020-11-25T01:40:40Z</time>
      </trkpt>
      <trkpt lat="44.82314" lon="0.23793">
        <ele>55.957</ele>
        <time>2020-11-25T01:41:00Z</time>
      </trkpt>
      <trkpt lat="44.82351" lon="0.238">
        <ele>57.337</ele>
        <time>2020-11-25T01:41:20Z</time>
      </trkpt>
      <trkpt lat="44.82359" lon="0.23821">
        <ele>61.029</ele>
        <time>2020-11-25T01:41:40Z</time>
      </trkpt>
      <trkpt lat="44.82318" lon="0.23829">
        <ele>64.861</ele>
        <time>2017-03-29T10:22:52Z</time>
      </trkpt>
      <trkpt lat="44.8236" lon="0.23858">
        <ele>66.752</ele>
        <time>2017-03-29T10:23:12Z</time>
      </trkpt>
      <trkpt lat="44.82366" lon="0.23875">
        <ele>66.718</ele>
        <time>2017-03-29T10:23:32Z</time>
      </trkpt>
      <trkpt lat="44.82332" lon="0.23879">
        <ele>73.69</ele>
        <time>2017-03-29T10:23:52Z</time>
      </trkpt>
      <trkpt lat="44.82325" lon="0.23959">
        <ele>84.591</ele>
        <time>2017-03-29T10:24:12Z</time>
      </trkpt>
      <trkpt lat="44.82334" lon="0.24078">
        <ele>91.481</ele>
        <time>2017-03-29T10:24:32Z</time>
      </trkpt>
      <trkpt lat="44.8235" lon="0.24147">
        <ele>93.119</ele>
        <time>2017-03-29T10:24:52Z</time>
      </trkpt>
      <trkpt lat="44.82351" lon="0.24176">
        <ele>93.608</ele>
        <time>2020-11-25T01:44:20Z</time>
      </trkpt>
      <trkpt lat="44.82375" lon="0.24188">
        <ele>91.375</ele>
        <time>2020-11-25T01:44:40Z</time>
      </trkpt>
      <trkpt lat="44.82368" lon="0.24306">
        <ele>93.34</ele>
        <time>2020-11-25T01:45:00Z</time>
      </trkpt>
      <trkpt lat="44.82333" lon="0.24481">
        <ele>98.08</ele>
        <time>2020-11-25T01:45:20Z</time>
      </trkpt>
      <trkpt lat="44.82336" lon="0.24517">
        <ele>97.812</ele>
        <time>2020-11-25T01:45:40Z</time>
      </trkpt>
      <trkpt lat="44.82298" lon="0.24678">
        <ele>103.824</ele>
        <time>2020-11-25T01:46:00Z</time>
      </trkpt>
      <trkpt lat="44.82222" lon="0.24637">
        <ele>99.885</ele>
        <time>2020-11-25T01:46:20Z</time>
      </trkpt>
      <trkpt lat="44.82186" lon="0.24689">
        <ele>100.711</ele>
        <time>2017-03-29T10:27:32Z</time>
      </trkpt>
      <trkpt lat="44.8215" lon="0.24812">
        <ele>108.483</ele>
        <time>2017-03-29T10:27:52Z</time>
      </trkpt>
      <trkpt lat="44.82135" lon="0.24848">
        <ele>109.213</ele>
        <time>2017-03-29T10:28:12Z</time>
      </trkpt>
      <trkpt lat="44.82112" lon="0.24872">
        <ele>108.543</ele>
        <time>2017-03-29T10:28:32Z</time>
      </trkpt>
      <trkpt lat="44.82078" lon="0.24926">
        <ele>108.107</ele>
        <time>2017-03-29T10:28:52Z</time>
      </trkpt>
      <trkpt lat="44.82057" lon="0.24965">
        <ele>109.708</ele>
        <time>2017-03-29T10:29:12Z</time>
      </trkpt>
      <trkpt lat="44.81953" lon="0.2509">
        <ele>112.217</ele>
        <time>2017-03-29T10:29:32Z</time>
      </trkpt>
      <trkpt lat="44.82019" lon="0.25149">
        <ele>109.752</ele>
        <time>2020-11-25T01:49:00Z</time>
      </trkpt>
      <trkpt lat="44.82058" lon="0.25211">
        <ele>99.212</ele>
        <time>2020-11-25T01:49:20Z</time>
      </trkpt>
      <trkpt lat="44.82091" lon="0.25197">
        <ele>88.144</ele>
        <time>2020-11-25T01:49:40Z</time>
      </trkpt>
      <trkpt lat="44.82121" lon="0.25236">
        <ele>77.186</ele>
        <time>2020-11-25T01:50:00Z</time>
      </trkpt>
      <trkpt lat="44.82165" lon="0.25217">
        <ele>67.097</ele>
        <time>2020-11-25T01:50:20Z</time>
      </trkpt>
      <trkpt lat="44.82244" lon="0.25316">
        <ele>49.493</ele>
        <time>2020-11-25T01:50:40Z</time>
      </trkpt>
      <trkpt lat="44.82316" lon="0.25297">
        <ele>41.485</ele>
        <time>2020-11-25T01:51:00Z</time>
      </trkpt>
      <trkpt lat="44.82437" lon="0.25428">
        <ele>29.791</ele>
        <time>2020-11-25T01:51:20Z</time>
      </trkpt>
      <trkpt lat="44.82349" lon="0.25556">
        <ele>30.481</ele>
        <time>2020-11-25T01:51:40Z</time>
      </trkpt>
      <trkpt lat="44.82273" lon="0.25631">
        <ele>30.019</ele>
        <time>2020-11-25T01:52:00Z</time>
      </trkpt>
      <trkpt lat="44.82207" lon="0.25543">
        <ele>37.308</ele>
        <time>2020-11-25T01:52:20Z</time>
      </trkpt>
      <trkpt lat="44.82131" lon="0.25658">
        <ele>36.545</ele>
        <time>2020-11-25T01:52:40Z</time>
      </trkpt>
      <trkpt lat="44.81958" lon="0.25841">
        <ele>38.54</ele>
        <time>2020-11-25T01:53:00Z</time>
      </trkpt>
      <trkpt lat="44.81871" lon="0.25975">
        <ele>40.86</ele>
        <time>2020-11-25T01:53:20Z</time>
      </trkpt>
      <trkpt lat="44.81878" lon="0.26013">
        <ele>38.212</ele>
        <time>2020-11-25T01:53:40Z</time>
      </trkpt>
      <trkpt lat="44.8172" lon="0.26071">
        <ele>43.014</ele>
        <time>2020-11-25T01:54:00Z</time>
      </trkpt>
      <trkpt lat="44.81648" lon="0.26118">
        <ele>42.495</ele>
        <time>2020-11-25T01:54:20Z</time>
      </trkpt>
      <trkpt lat="44.81489" lon="0.26173">
        <ele>43.641</ele>
        <time>2020-11-25T01:54:40Z</time>
      </trkpt>
      <trkpt lat="44.81427" lon="0.26118">
        <ele>50.823</ele>
        <time>2020-11-25T01:55:00Z</time>
      </trkpt>
      <trkpt lat="44.8138" lon="0.26105">
        <ele>52.941</ele>
        <time>2020-11-25T01:55:20Z</time>
      </trkpt>
      <trkpt lat="44.81292" lon="0.26107">
        <ele>53.881</ele>
        <time>2020-11-25T01:55:40Z</time>
      </trkpt>
      <trkpt lat="44.81242" lon="0.2609">
        <ele>51.909</ele>
        <time>2017-03-29T10:35:12Z</time>
      </trkpt>
      <trkpt lat="44.81191" lon="0.26128">
        <ele>51.108</ele>
        <time>2017-03-29T10:35:32Z</time>
      </trkpt>
      <trkpt lat="44.81205" lon="0.26307">
        <ele>40.38</ele>
        <time>2017-03-29T10:35:52Z</time>
      </trkpt>
      <trkpt lat="44.81232" lon="0.26461">
        <ele>35.685</ele>
        <time>2017-03-29T10:36:12Z</time>
      </trkpt>
      <trkpt lat="44.81269" lon="0.26581">
        <ele>34.015</ele>
        <time>2017-03-29T10:36:32Z</time>
      </trkpt>
      <trkpt lat="44.81285" lon="0.26756">
        <ele>39.027</ele>
        <time>2017-03-29T10:36:52Z</time>
      </trkpt>
      <trkpt lat="44.81323" lon="0.26713">
        <ele>38.949</ele>
        <time>2017-03-29T10:37:12Z</time>
      </trkpt>
      <trkpt lat="44.81386" lon="0.26678">
        <ele>37.34</ele>
        <time>2017-03-29T10:37:32Z</time>
      </trkpt>
      <trkpt lat="44.81485" lon="0.26675">
        <ele>36.496</ele>
        <time>2017-03-29T10:37:52Z</time>
      </trkpt>
      <trkpt lat="44.8158" lon="0.26708">
        <ele>34.278</ele>
        <time>2017-03-29T10:38:12Z</time>
      </trkpt>
      <trkpt lat="44.8164" lon="0.26744">
        <ele>34.539</ele>
        <time>2017-03-29T10:38:32Z</time>
      </trkpt>
      <trkpt lat="44.81688" lon="0.26752">
        <ele>33.401</ele>
        <time>2017-03-29T10:38:52Z</time>
      </trkpt>
      <trkpt lat="44.8171" lon="0.26732">
        <ele>32.621</ele>
        <time>2017-03-29T10:39:12Z</time>
      </trkpt>
      <trkpt lat="44.81741" lon="0.26772">
        <ele>34.208</ele>
        <time>2017-03-29T10:39:32Z</time>
      </trkpt>
      <trkpt lat="44.819" lon="0.26852">
        <ele>32.369</ele>
        <time>2017-03-29T10:39:52Z</time>
      </trkpt>
      <trkpt lat="44.82016" lon="0.26792">
        <ele>33.854</ele>
        <time>2017-03-29T10:40:12Z</time>
      </trkpt>
      <trkpt lat="44.82007" lon="0.26827">
        <ele>34.874</ele>
        <time>2017-03-29T10:40:32Z</time>
      </trkpt>
      <trkpt lat="44.81972" lon="0.26875">
        <ele>35.046</ele>
        <time>2017-03-29T10:40:52Z</time>
      </trkpt>
      <trkpt lat="44.81924" lon="0.26997">
        <ele>42.178</ele>
        <time>2017-03-29T10:41:12Z</time>
      </trkpt>
      <trkpt lat="44.81921" lon="0.27051">
        <ele>45.629</ele>
        <time>2017-03-29T10:41:32Z</time>
      </trkpt>
      <trkpt lat="44.81902" lon="0.27108">
        <ele>47.615</ele>
        <time>2017-03-29T10:41:52Z</time>
      </trkpt>
      <trkpt lat="44.8185" lon="0.27347">
        <ele>68.117</ele>
        <time>2017-03-29T10:42:12Z</time>
      </trkpt>
      <trkpt lat="44.81821" lon="0.27448">
        <ele>75.257</ele>
        <time>2017-03-29T10:42:32Z</time>
      </trkpt>
      <trkpt lat="44.81822" lon="0.275">
        <ele>77.9</ele>
        <time>2017-03-29T10:42:52Z</time>
      </trkpt>
      <trkpt lat="44.8186" lon="0.27582">
        <ele>79.02</ele>
        <time>2017-03-29T10:43:12Z</time>
      </trkpt>
      <trkpt lat="44.81911" lon="0.2765">
        <ele>84.508</ele>
        <time>2017-03-29T10:43:32Z</time>
      </trkpt>
      <trkpt lat="44.81929" lon="0.27699">
        <ele>87.181</ele>
        <time>2017-03-29T10:43:52Z</time>
      </trkpt>
      <trkpt lat="44.81919" lon="0.27765">
        <ele>90.596</ele>
        <time>2017-03-29T10:44:12Z</time>
      </trkpt>
      <trkpt lat="44.81906" lon="0.27791">
        <ele>91.326</ele>
        <time>2017-03-29T10:44:32Z</time>
      </trkpt>
      <trkpt lat="44.81881" lon="0.2788">
        <ele>90.728</ele>
        <time>2017-03-29T10:44:52Z</time>
      </trkpt>
      <trkpt lat="44.81926" lon="0.27952">
        <ele>95.64</ele>
        <time>2017-03-29T10:45:12Z</time>
      </trkpt>
      <trkpt lat="44.81872" lon="0.28037">
        <ele>94.771</ele>
        <time>2017-03-29T10:45:32Z</time>
      </trkpt>
      <trkpt lat="44.81814" lon="0.28151">
        <ele>95.097</ele>
        <time>2017-03-29T10:45:52Z</time>
      </trkpt>
      <trkpt lat="44.81743" lon="0.2832">
        <ele>95.399</ele>
        <time>2017-03-29T10:46:12Z</time>
      </trkpt>
      <trkpt lat="44.81805" lon="0.28356">
        <ele>99.836</ele>
        <time>2017-03-29T10:46:32Z</time>
      </trkpt>
      <trkpt lat="44.81865" lon="0.28373">
        <ele>101.417</ele>
        <time>2017-03-29T10:46:52Z</time>
      </trkpt>
      <trkpt lat="44.81842" lon="0.28435">
        <ele>102.718</ele>
        <time>2017-03-29T10:47:12Z</time>
      </trkpt>
      <trkpt lat="44.81794" lon="0.28718">
        <ele>110.408</ele>
        <time>2017-03-29T10:47:32Z</time>
      </trkpt>
      <trkpt lat="44.81749" lon="0.28715">
        <ele>111.759</ele>
        <time>2017-03-29T10:47:52Z</time>
      </trkpt>
      <trkpt lat="44.81651" lon="0.28722">
        <ele>109.954</ele>
        <time>2017-03-29T10:48:12Z</time>
      </trkpt>
      <trkpt lat="44.81619" lon="0.28703">
        <ele>105.634</ele>
        <time>2017-03-29T10:48:32Z</time>
      </trkpt>
      <trkpt lat="44.81435" lon="0.28492">
        <ele>93.416</ele>
        <time>2017-03-29T10:48:52Z</time>
      </trkpt>
      <trkpt lat="44.8141" lon="0.28485">
        <ele>92.258</ele>
        <time>2017-03-29T10:49:12Z</time>
      </trkpt>
      <trkpt lat="44.81278" lon="0.28503">
        <ele>88.029</ele>
        <time>2017-03-29T10:49:32Z</time>
      </trkpt>
      <trkpt lat="44.81009" lon="0.2848">
        <ele>95.065</ele>
        <time>2017-03-29T10:49:52Z</time>
      </trkpt>
      <trkpt lat="44.8099" lon="0.28474">
        <ele>96.887</ele>
        <time>2017-03-29T10:50:12Z</time>
      </trkpt>
      <trkpt lat="44.80964" lon="0.28735">
        <ele>104.383</ele>
        <time>2017-03-29T10:50:32Z</time>
      </trkpt>
      <trkpt lat="44.80963" lon="0.28822">
        <ele>109.425</ele>
        <time>2017-03-29T10:50:52Z</time>
      </trkpt>
      <trkpt lat="44.80892" lon="0.28996">
        <ele>118.817</ele>
        <time>2017-03-29T10:51:12Z</time>
      </trkpt>
      <trkpt lat="44.80866" lon="0.29076">
        <ele>120.408</ele>
        <time>2017-03-29T10:51:32Z</time>
      </trkpt>
      <trkpt lat="44.80856" lon="0.29096">
        <ele>120.934</ele>
        <time>2017-03-29T10:51:52Z</time>
      </trkpt>
      <trkpt lat="44.80842" lon="0.29137">
        <ele>120.049</ele>
        <time>2017-03-29T10:52:12Z</time>
      </trkpt>
      <trkpt lat="44.80834" lon="0.2917">
        <ele>119.239</ele>
        <time>2017-03-29T10:52:32Z</time>
      </trkpt>
      <trkpt lat="44.80797" lon="0.29262">
        <ele>125.691</ele>
        <time>2017-03-29T10:52:52Z</time>
      </trkpt>
      <trkpt lat="44.80782" lon="0.29309">
        <ele>126.163</ele>
        <time>2017-03-29T10:53:12Z</time>
      </trkpt>
      <trkpt lat="44.80714" lon="0.29468">
        <ele>127.564</ele>
        <time>2017-03-29T10:53:32Z</time>
      </trkpt>
      <trkpt lat="44.80647" lon="0.29391">
        <ele>125.57</ele>
        <time>2017-03-29T10:53:52Z</time>
      </trkpt>
      <trkpt lat="44.80635" lon="0.29314">
        <ele>120.332</ele>
        <time>2017-03-29T10:54:12Z</time>
      </trkpt>
      <trkpt lat="44.8059" lon="0.29164">
        <ele>111.961</ele>
        <time>2017-03-29T10:54:32Z</time>
      </trkpt>
      <trkpt lat="44.80582" lon="0.2906">
        <ele>107.321</ele>
        <time>2017-03-29T10:54:52Z</time>
      </trkpt>
      <trkpt lat="44.80439" lon="0.28882">
        <ele>106.413</ele>
        <time>2017-03-29T10:55:12Z</time>
      </trkpt>
      <trkpt lat="44.80388" lon="0.29059">
        <ele>114.008</ele>
        <time>2017-03-29T10:55:32Z</time>
      </trkpt>
      <trkpt lat="44.80352" lon="0.29146">
        <ele>117.332</ele>
        <time>2017-03-29T10:55:52Z</time>
      </trkpt>
      <trkpt lat="44.80355" lon="0.29304">
        <ele>126.337</ele>
        <time>2017-03-29T10:56:12Z</time>
      </trkpt>
      <trkpt lat="44.80336" lon="0.29428">
        <ele>130.537</ele>
        <time>2017-03-29T10:56:32Z</time>
      </trkpt>
      <trkpt lat="44.80261" lon="0.29592">
        <ele>129.789</ele>
        <time>2017-03-29T10:56:52Z</time>
      </trkpt>
      <trkpt lat="44.80183" lon="0.29647">
        <ele>128.771</ele>
        <time>2017-03-29T10:57:12Z</time>
      </trkpt>
      <trkpt lat="44.80132" lon="0.29791">
        <ele>132.892</ele>
        <time>2017-03-29T10:57:32Z</time>
      </trkpt>
      <trkpt lat="44.80061" lon="0.29963">
        <ele>129.368</ele>
        <time>2017-03-29T10:57:52Z</time>
      </trkpt>
      <trkpt lat="44.79807" lon="0.30281">
        <ele>128.72</ele>
        <time>2017-03-29T10:58:12Z</time>
      </trkpt>
      <trkpt lat="44.79785" lon="0.30509">
        <ele>117.222</ele>
        <time>2017-03-29T10:58:32Z</time>
      </trkpt>
      <trkpt lat="44.79811" lon="0.30635">
        <ele>112.862</ele>
        <time>2017-03-29T10:58:52Z</time>
      </trkpt>
      <trkpt lat="44.79814" lon="0.30687">
        <ele>111.208</ele>
        <time>2017-03-29T10:59:12Z</time>
      </trkpt>
      <trkpt lat="44.79835" lon="0.30752">
        <ele>105.608</ele>
        <time>2017-03-29T10:59:32Z</time>
      </trkpt>
      <trkpt lat="44.79863" lon="0.30791">
        <ele>99.968</ele>
        <time>2017-03-29T10:59:52Z</time>
      </trkpt>
      <trkpt lat="44.7987" lon="0.30823">
        <ele>97.933</ele>
        <time>2017-03-29T11:00:12Z</time>
      </trkpt>
      <trkpt lat="44.79843" lon="0.30866">
        <ele>98.993</ele>
        <time>2017-03-29T11:00:32Z</time>
      </trkpt>
      <trkpt lat="44.7984" lon="0.30993">
        <ele>98.935</ele>
        <time>2017-03-29T11:00:52Z</time>
      </trkpt>
      <trkpt lat="44.79834" lon="0.31118">
        <ele>105.027</ele>
        <time>2017-03-29T11:01:12Z</time>
      </trkpt>
      <trkpt lat="44.79814" lon="0.31224">
        <ele>107.738</ele>
        <time>2017-03-29T11:01:32Z</time>
      </trkpt>
      <trkpt lat="44.79805" lon="0.31329">
        <ele>107.234</ele>
        <time>2017-03-29T11:01:52Z</time>
      </trkpt>
      <trkpt lat="44.79818" lon="0.31683">
        <ele>107.956</ele>
        <time>2017-03-29T11:02:12Z</time>
      </trkpt>
      <trkpt lat="44.79805" lon="0.31784">
        <ele>109.621</ele>
        <time>2017-03-29T11:02:32Z</time>
      </trkpt>
      <trkpt lat="44.79818" lon="0.3199">
        <ele>103.241</ele>
        <time>2017-03-29T11:02:52Z</time>
      </trkpt>
      <trkpt lat="44.7985" lon="0.32185">
        <ele>109.705</ele>
        <time>2017-03-29T11:03:12Z</time>
      </trkpt>
      <trkpt lat="44.79867" lon="0.3245">
        <ele>118.408</ele>
        <time>2017-03-29T11:03:32Z</time>
      </trkpt>
      <trkpt lat="44.79857" lon="0.32576">
        <ele>122.058</ele>
        <time>2017-03-29T11:03:52Z</time>
      </trkpt>
      <trkpt lat="44.79925" lon="0.32571">
        <ele>123.283</ele>
        <time>2017-03-29T11:04:12Z</time>
      </trkpt>
      <trkpt lat="44.80014" lon="0.32618">
        <ele>126.853</ele>
        <time>2017-03-29T11:04:32Z</time>
      </trkpt>
    </trkseg>
  </trk>
</gpx>